Wautoma, WI (54982)

10:54 AM CST on February 12, 2016 (GMT -0600)
Mt. Morris Township | | Change Station
CLOSE
Current Station
Personal Weather Station
Location: Wautoma, WI
Elevation: 912 ft
Nearby Weather Stations
Active Advisory: Wind Chill Advisory

Elev 912 ft 44.08 °N, 89.21 °W | Updated 14 minutes ago

Scattered Clouds
Scattered Clouds
16.9 °F
Feels Like 10 °F
N
4.7
Wind Variable Wind from WNW

Today
High -- | Low -- °F
--% Chance of Precip.
Yesterday
High -- | Low -- °F
Precip. -- in
Pressure 30.21 in
Visibility 10.0 miles
Clouds Scattered Clouds 3400 ft
Windchill 10 °F
Dew Point 2 °F
Humidity 50%
Rainfall 0.00 in
Snow Depth Not available.
7:01 AM 5:22 PM
Waxing Crescent, 22% visible
METAR KY50 121556Z AUTO 32013G23KT 10SM SCT034 M10/M18 A3016 RMK AO2 TSNO T11001183 SNE15 P0000 SLP228
Pressure 30.21 in
Visibility 10.0 miles
Clouds Scattered Clouds 3400 ft
Windchill 10 °F
Dew Point 2 °F
Humidity 50%
Rainfall 0.00 in
Snow Depth Not available.
7:01 AM 5:22 PM
Waxing Crescent, 22% visible
METAR KY50 121556Z AUTO 32013G23KT 10SM SCT034 M10/M18 A3016 RMK AO2 TSNO T11001183 SNE15 P0000 SLP228

10-Day Weather Forecast

Almanac

Astronomy

Feb. 12, 2016 Rise Set
Actual Time
Civil Twilight
Nautical Twilight
Astronomical Twilight
Moon
Length of Visible Light
Length of Day
Tomorrow will be .
, % of the Moon is Illuminated

Today's Extremes

State Highs State Lows

Community

WunderPhotos

Upload Photos

1,892,354 photos uploaded!

WunderBlog® & News

Nearby

Air Quality

  Air Quality AQ Index Pollutant
Not available.

Snow Depth

Station Depth Elevation

Earthquake Activity

City Distance Mag. Time & Date
Minimum magnitude displayed is 2.5.

Coastal Water Temperatures

Place Temperature

Stations

Nearby Weather Stations

Station Location Temp. Windchill Dew Point Humidity Wind Precip. Elev Updated Type
                   

Watches & Warnings

Wind Chill Advisory
Issued: 3:11 AM CST Feb. 12, 2016 – National Weather Service

... Wind Chill Advisory in effect from midnight tonight to 9 am
CST Saturday...

The National Weather Service in Green Bay has issued a Wind Chill
Advisory... which is in effect from midnight tonight to 9 am CST
Saturday.

* Wind chills will drop to 20 to 25 below zero tonight and early
Saturday.

* The cold wind chills will cause frostbite on exposed skin in as
little as 20 to 30 minutes.

Precautionary/preparedness actions...

A Wind Chill Advisory means that cold air and the wind will
combine to generate low wind chills. Frost bite and hypothermia
can occur if precautions are not taken. Make sure you wear a hat
and gloves.

Tsk